sensor_id;sensor_type;location;lat;lon;timestamp;temperature;humidity
30308;DHT22;17114;52.314;8.910;2024-01-11T00:02:12;-8.00;99.90
30308;DHT22;17114;52.314;8.910;2024-01-11T00:04:40;-8.00;99.90
30308;DHT22;17114;52.314;8.910;2024-01-11T00:07:07;-8.00;99.90
30308;DHT22;17114;52.314;8.910;2024-01-11T00:09:41;-8.00;99.90
30308;DHT22;17114;52.314;8.910;2024-01-11T00:12:09;-8.10;99.90
30308;DHT22;17114;52.314;8.910;2024-01-11T00:14:36;-8.10;99.90
30308;DHT22;17114;52.314;8.910;2024-01-11T00:17:03;-8.10;99.90
30308;DHT22;17114;52.314;8.910;2024-01-11T00:19:30;-8.20;99.90
30308;DHT22;17114;52.314;8.910;2024-01-11T00:21:57;-8.20;99.90
30308;DHT22;17114;52.314;8.910;2024-01-11T00:24:24;-8.20;99.90
30308;DHT22;17114;52.314;8.910;2024-01-11T00:26:51;-8.20;99.90
30308;DHT22;17114;52.314;8.910;2024-01-11T00:29:18;-8.10;99.90
30308;DHT22;17114;52.314;8.910;2024-01-11T00:31:45;-8.20;99.90
30308;DHT22;17114;52.314;8.910;2024-01-11T00:34:12;-8.10;99.90
30308;DHT22;17114;52.314;8.910;2024-01-11T00:36:39;-8.10;99.90
30308;DHT22;17114;52.314;8.910;2024-01-11T00:39:06;-8.10;99.90
30308;DHT22;17114;52.314;8.910;2024-01-11T00:41:33;-8.10;99.90
30308;DHT22;17114;52.314;8.910;2024-01-11T00:44:00;-8.10;99.90
30308;DHT22;17114;52.314;8.910;2024-01-11T00:46:28;-8.00;99.90
30308;DHT22;17114;52.314;8.910;2024-01-11T00:48:55;-8.00;99.90
30308;DHT22;17114;52.314;8.910;2024-01-11T00:51:22;-8.10;99.90
30308;DHT22;17114;52.314;8.910;2024-01-11T00:53:49;-8.10;99.90
30308;DHT22;17114;52.314;8.910;2024-01-11T00:56:17;-8.10;99.90
30308;DHT22;17114;52.314;8.910;2024-01-11T00:58:44;-8.10;99.90
30308;DHT22;17114;52.314;8.910;2024-01-11T01:01:12;-8.10;99.90
30308;DHT22;17114;52.314;8.910;2024-01-11T01:03:40;-8.10;99.90
30308;DHT22;17114;52.314;8.910;2024-01-11T01:06:07;-8.20;99.90
30308;DHT22;17114;52.314;8.910;2024-01-11T01:08:35;-8.20;99.90
30308;DHT22;17114;52.314;8.910;2024-01-11T01:11:02;-8.30;99.90
30308;DHT22;17114;52.314;8.910;2024-01-11T01:13:30;-8.30;99.90
30308;DHT22;17114;52.314;8.910;2024-01-11T01:15:57;-8.20;99.90
30308;DHT22;17114;52.314;8.910;2024-01-11T01:18:24;-8.30;99.90
30308;DHT22;17114;52.314;8.910;2024-01-11T01:20:51;-8.10;99.90
30308;DHT22;17114;52.314;8.910;2024-01-11T01:23:19;-8.30;99.90
30308;DHT22;17114;52.314;8.910;2024-01-11T01:25:46;-8.30;99.90
30308;DHT22;17114;52.314;8.910;2024-01-11T01:28:13;-8.40;99.90
30308;DHT22;17114;52.314;8.910;2024-01-11T01:30:40;-8.40;99.90
30308;DHT22;17114;52.314;8.910;2024-01-11T01:33:07;-8.30;99.90
30308;DHT22;17114;52.314;8.910;2024-01-11T01:35:35;-8.30;99.90
30308;DHT22;17114;52.314;8.910;2024-01-11T01:38:02;-8.40;99.90
30308;DHT22;17114;52.314;8.910;2024-01-11T01:40:32;-8.30;99.90
30308;DHT22;17114;52.314;8.910;2024-01-11T01:42:59;-8.30;99.90
30308;DHT22;17114;52.314;8.910;2024-01-11T01:45:26;-8.30;99.90
30308;DHT22;17114;52.314;8.910;2024-01-11T01:47:55;-8.30;99.90
30308;DHT22;17114;52.314;8.910;2024-01-11T01:50:22;-8.40;99.90
30308;DHT22;17114;52.314;8.910;2024-01-11T01:52:50;-8.40;99.90
30308;DHT22;17114;52.314;8.910;2024-01-11T01:55:19;-8.40;99.90
30308;DHT22;17114;52.314;8.910;2024-01-11T01:57:47;-8.40;99.90
30308;DHT22;17114;52.314;8.910;2024-01-11T02:00:15;-8.40;99.90
30308;DHT22;17114;52.314;8.910;2024-01-11T02:02:50;-8.50;99.90
30308;DHT22;17114;52.314;8.910;2024-01-11T02:05:18;-8.50;99.90
30308;DHT22;17114;52.314;8.910;2024-01-11T02:07:46;-8.50;99.90
30308;DHT22;17114;52.314;8.910;2024-01-11T02:10:13;-8.50;99.90
30308;DHT22;17114;52.314;8.910;2024-01-11T02:12:41;-8.50;99.90
30308;DHT22;17114;52.314;8.910;2024-01-11T02:15:08;-8.50;99.90
30308;DHT22;17114;52.314;8.910;2024-01-11T02:17:36;-8.60;99.90
30308;DHT22;17114;52.314;8.910;2024-01-11T02:20:03;-8.60;99.90
30308;DHT22;17114;52.314;8.910;2024-01-11T02:22:35;-8.50;99.90
30308;DHT22;17114;52.314;8.910;2024-01-11T02:25:02;-8.50;99.90
30308;DHT22;17114;52.314;8.910;2024-01-11T02:27:29;-8.60;99.90
30308;DHT22;17114;52.314;8.910;2024-01-11T02:29:56;-8.60;99.90
30308;DHT22;17114;52.314;8.910;2024-01-11T02:32:23;-8.60;99.90
30308;DHT22;17114;52.314;8.910;2024-01-11T02:34:50;-8.60;99.90
30308;DHT22;17114;52.314;8.910;2024-01-11T02:37:18;-8.60;99.90
30308;DHT22;17114;52.314;8.910;2024-01-11T02:39:45;-8.60;99.90
30308;DHT22;17114;52.314;8.910;2024-01-11T02:42:12;-8.50;99.90
30308;DHT22;17114;52.314;8.910;2024-01-11T02:44:40;-8.50;99.90
30308;DHT22;17114;52.314;8.910;2024-01-11T02:47:07;-8.50;99.90
30308;DHT22;17114;52.314;8.910;2024-01-11T02:49:34;-8.50;99.90
30308;DHT22;17114;52.314;8.910;2024-01-11T02:52:03;-8.50;99.90
30308;DHT22;17114;52.314;8.910;2024-01-11T02:54:30;-8.50;99.90
30308;DHT22;17114;52.314;8.910;2024-01-11T02:56:57;-8.50;99.90
30308;DHT22;17114;52.314;8.910;2024-01-11T02:59:24;-8.50;99.90
30308;DHT22;17114;52.314;8.910;2024-01-11T03:01:51;-8.50;99.90
30308;DHT22;17114;52.314;8.910;2024-01-11T03:04:18;-8.50;99.90
30308;DHT22;17114;52.314;8.910;2024-01-11T03:06:45;-8.50;99.90
30308;DHT22;17114;52.314;8.910;2024-01-11T03:09:12;-8.50;99.90
30308;DHT22;17114;52.314;8.910;2024-01-11T03:11:39;-8.60;99.90
30308;DHT22;17114;52.314;8.910;2024-01-11T03:14:06;-8.60;99.90
30308;DHT22;17114;52.314;8.910;2024-01-11T03:16:33;-8.60;99.90
30308;DHT22;17114;52.314;8.910;2024-01-11T03:19:00;-8.60;99.90
30308;DHT22;17114;52.314;8.910;2024-01-11T03:21:27;-8.60;99.90
30308;DHT22;17114;52.314;8.910;2024-01-11T03:23:54;-8.60;99.90
30308;DHT22;17114;52.314;8.910;2024-01-11T03:26:21;-8.70;99.90
30308;DHT22;17114;52.314;8.910;2024-01-11T03:28:48;-8.70;99.90
30308;DHT22;17114;52.314;8.910;2024-01-11T03:31:16;-8.70;99.90
30308;DHT22;17114;52.314;8.910;2024-01-11T03:33:43;-8.70;99.90
30308;DHT22;17114;52.314;8.910;2024-01-11T03:36:11;-8.70;99.90
30308;DHT22;17114;52.314;8.910;2024-01-11T03:38:38;-8.70;99.90
30308;DHT22;17114;52.314;8.910;2024-01-11T03:41:08;-8.70;99.90
30308;DHT22;17114;52.314;8.910;2024-01-11T03:43:39;-8.70;99.90
30308;DHT22;17114;52.314;8.910;2024-01-11T03:46:06;-8.70;99.90
30308;DHT22;17114;52.314;8.910;2024-01-11T03:48:33;-8.70;99.90
30308;DHT22;17114;52.314;8.910;2024-01-11T03:51:02;-8.70;99.90
30308;DHT22;17114;52.314;8.910;2024-01-11T03:53:29;-8.60;99.90
30308;DHT22;17114;52.314;8.910;2024-01-11T03:55:56;-8.60;99.90
30308;DHT22;17114;52.314;8.910;2024-01-11T03:58:23;-8.60;99.90
30308;DHT22;17114;52.314;8.910;2024-01-11T04:00:50;-8.60;99.90
30308;DHT22;17114;52.314;8.910;2024-01-11T04:03:17;-8.60;99.90
30308;DHT22;17114;52.314;8.910;2024-01-11T04:05:44;-8.60;99.90
30308;DHT22;17114;52.314;8.910;2024-01-11T04:08:11;-8.60;99.90
30308;DHT22;17114;52.314;8.910;2024-01-11T04:10:38;-8.60;99.90
30308;DHT22;17114;52.314;8.910;2024-01-11T04:13:07;-8.60;99.90
30308;DHT22;17114;52.314;8.910;2024-01-11T04:15:34;-8.50;99.90
30308;DHT22;17114;52.314;8.910;2024-01-11T04:18:01;-8.50;99.90
30308;DHT22;17114;52.314;8.910;2024-01-11T04:20:29;-8.50;99.90
30308;DHT22;17114;52.314;8.910;2024-01-11T04:22:56;-8.60;99.90
30308;DHT22;17114;52.314;8.910;2024-01-11T04:25:23;-8.40;99.90
30308;DHT22;17114;52.314;8.910;2024-01-11T04:27:51;-8.60;99.90
30308;DHT22;17114;52.314;8.910;2024-01-11T04:30:17;-8.60;99.90
30308;DHT22;17114;52.314;8.910;2024-01-11T04:32:45;-8.60;99.90
30308;DHT22;17114;52.314;8.910;2024-01-11T04:35:12;-8.60;99.90
30308;DHT22;17114;52.314;8.910;2024-01-11T04:37:39;-8.60;99.90
30308;DHT22;17114;52.314;8.910;2024-01-11T04:40:07;-8.60;99.90
30308;DHT22;17114;52.314;8.910;2024-01-11T04:42:35;-8.50;99.90
30308;DHT22;17114;52.314;8.910;2024-01-11T04:45:02;-8.40;99.90
30308;DHT22;17114;52.314;8.910;2024-01-11T04:47:29;-8.40;99.90
30308;DHT22;17114;52.314;8.910;2024-01-11T04:49:56;-8.50;99.90
30308;DHT22;17114;52.314;8.910;2024-01-11T04:52:23;-8.50;99.90
30308;DHT22;17114;52.314;8.910;2024-01-11T04:54:50;-8.50;99.90
30308;DHT22;17114;52.314;8.910;2024-01-11T04:57:18;-8.50;99.90
30308;DHT22;17114;52.314;8.910;2024-01-11T04:59:44;-8.50;99.90
30308;DHT22;17114;52.314;8.910;2024-01-11T05:02:12;-8.60;99.90
30308;DHT22;17114;52.314;8.910;2024-01-11T05:04:39;-8.60;99.90
30308;DHT22;17114;52.314;8.910;2024-01-11T05:07:06;-8.50;99.90
30308;DHT22;17114;52.314;8.910;2024-01-11T05:09:33;-8.50;99.90
30308;DHT22;17114;52.314;8.910;2024-01-11T05:12:00;-8.50;99.90
30308;DHT22;17114;52.314;8.910;2024-01-11T05:14:27;-8.50;99.90
30308;DHT22;17114;52.314;8.910;2024-01-11T05:16:54;-8.50;99.90
30308;DHT22;17114;52.314;8.910;2024-01-11T05:19:21;-8.50;99.90
30308;DHT22;17114;52.314;8.910;2024-01-11T05:21:48;-8.50;99.90
30308;DHT22;17114;52.314;8.910;2024-01-11T05:24:16;-8.50;99.90
30308;DHT22;17114;52.314;8.910;2024-01-11T05:26:42;-8.50;99.90
30308;DHT22;17114;52.314;8.910;2024-01-11T05:29:10;-8.50;99.90
30308;DHT22;17114;52.314;8.910;2024-01-11T05:31:37;-8.50;99.90
30308;DHT22;17114;52.314;8.910;2024-01-11T05:34:05;-8.50;99.90
30308;DHT22;17114;52.314;8.910;2024-01-11T05:36:32;-8.60;99.90
30308;DHT22;17114;52.314;8.910;2024-01-11T05:38:59;-8.50;99.90
30308;DHT22;17114;52.314;8.910;2024-01-11T05:41:26;-8.40;99.90
30308;DHT22;17114;52.314;8.910;2024-01-11T05:43:53;-8.30;99.90
30308;DHT22;17114;52.314;8.910;2024-01-11T05:46:21;-8.30;99.90
30308;DHT22;17114;52.314;8.910;2024-01-11T05:48:48;-8.40;99.90
30308;DHT22;17114;52.314;8.910;2024-01-11T05:51:16;-8.40;99.90
30308;DHT22;17114;52.314;8.910;2024-01-11T05:53:43;-8.30;99.90
30308;DHT22;17114;52.314;8.910;2024-01-11T05:56:11;-8.30;99.90
30308;DHT22;17114;52.314;8.910;2024-01-11T05:58:39;-8.20;99.90
30308;DHT22;17114;52.314;8.910;2024-01-11T06:01:07;-8.30;99.90
30308;DHT22;17114;52.314;8.910;2024-01-11T06:03:34;-8.20;99.90
30308;DHT22;17114;52.314;8.910;2024-01-11T06:06:03;-8.30;99.90
30308;DHT22;17114;52.314;8.910;2024-01-11T06:08:31;-8.30;99.90
30308;DHT22;17114;52.314;8.910;2024-01-11T06:10:59;-8.30;99.90
30308;DHT22;17114;52.314;8.910;2024-01-11T06:13:27;-8.30;99.90
30308;DHT22;17114;52.314;8.910;2024-01-11T06:15:55;-8.30;99.90
30308;DHT22;17114;52.314;8.910;2024-01-11T06:18:22;-8.40;99.90
30308;DHT22;17114;52.314;8.910;2024-01-11T06:20:49;-8.40;99.90
30308;DHT22;17114;52.314;8.910;2024-01-11T06:23:16;-8.40;99.90
30308;DHT22;17114;52.314;8.910;2024-01-11T06:25:44;-8.50;99.90
30308;DHT22;17114;52.314;8.910;2024-01-11T06:28:13;-8.40;99.90
30308;DHT22;17114;52.314;8.910;2024-01-11T06:30:40;-8.40;99.90
30308;DHT22;17114;52.314;8.910;2024-01-11T06:33:08;-8.30;99.90
30308;DHT22;17114;52.314;8.910;2024-01-11T06:35:35;-8.40;99.90
30308;DHT22;17114;52.314;8.910;2024-01-11T06:38:03;-8.40;99.90
30308;DHT22;17114;52.314;8.910;2024-01-11T06:40:31;-8.40;99.90
30308;DHT22;17114;52.314;8.910;2024-01-11T06:42:58;-8.50;99.90
30308;DHT22;17114;52.314;8.910;2024-01-11T06:45:25;-8.50;99.90
30308;DHT22;17114;52.314;8.910;2024-01-11T06:47:53;-8.60;99.90
30308;DHT22;17114;52.314;8.910;2024-01-11T06:50:21;-8.50;99.90
30308;DHT22;17114;52.314;8.910;2024-01-11T06:52:48;-8.50;99.90
30308;DHT22;17114;52.314;8.910;2024-01-11T06:55:15;-8.50;99.90
30308;DHT22;17114;52.314;8.910;2024-01-11T06:57:42;-8.50;99.90
30308;DHT22;17114;52.314;8.910;2024-01-11T07:00:10;-8.50;99.90
30308;DHT22;17114;52.314;8.910;2024-01-11T07:02:37;-8.50;99.90
30308;DHT22;17114;52.314;8.910;2024-01-11T07:05:04;-8.50;99.90
30308;DHT22;17114;52.314;8.910;2024-01-11T07:07:31;-8.50;99.90
30308;DHT22;17114;52.314;8.910;2024-01-11T07:09:59;-8.50;99.90
30308;DHT22;17114;52.314;8.910;2024-01-11T07:12:26;-8.50;99.90
30308;DHT22;17114;52.314;8.910;2024-01-11T07:14:54;-8.50;99.90
30308;DHT22;17114;52.314;8.910;2024-01-11T07:17:21;-8.40;99.90
30308;DHT22;17114;52.314;8.910;2024-01-11T07:19:49;-8.40;99.90
30308;DHT22;17114;52.314;8.910;2024-01-11T07:22:16;-8.40;99.90
30308;DHT22;17114;52.314;8.910;2024-01-11T07:24:44;-8.30;99.90
30308;DHT22;17114;52.314;8.910;2024-01-11T07:27:11;-8.30;99.90
30308;DHT22;17114;52.314;8.910;2024-01-11T07:29:38;-8.30;99.90
30308;DHT22;17114;52.314;8.910;2024-01-11T07:32:05;-8.30;99.90
30308;DHT22;17114;52.314;8.910;2024-01-11T07:34:33;-8.30;99.90
30308;DHT22;17114;52.314;8.910;2024-01-11T07:37:00;-8.30;99.90
30308;DHT22;17114;52.314;8.910;2024-01-11T07:39:27;-8.30;99.90
30308;DHT22;17114;52.314;8.910;2024-01-11T07:41:55;-8.30;99.90
30308;DHT22;17114;52.314;8.910;2024-01-11T07:44:22;-8.30;99.90
30308;DHT22;17114;52.314;8.910;2024-01-11T07:46:49;-8.30;99.90
30308;DHT22;17114;52.314;8.910;2024-01-11T07:49:21;-8.20;99.90
30308;DHT22;17114;52.314;8.910;2024-01-11T07:51:48;-8.20;99.90
30308;DHT22;17114;52.314;8.910;2024-01-11T07:54:16;-8.10;99.90
30308;DHT22;17114;52.314;8.910;2024-01-11T07:56:43;-8.00;99.90
30308;DHT22;17114;52.314;8.910;2024-01-11T07:59:10;-7.90;99.90
30308;DHT22;17114;52.314;8.910;2024-01-11T08:01:42;-7.80;99.90
30308;DHT22;17114;52.314;8.910;2024-01-11T08:04:09;-7.70;99.90
30308;DHT22;17114;52.314;8.910;2024-01-11T08:06:37;-7.70;99.90
30308;DHT22;17114;52.314;8.910;2024-01-11T08:09:05;-7.60;99.90
30308;DHT22;17114;52.314;8.910;2024-01-11T08:11:32;-7.60;99.90
30308;DHT22;17114;52.314;8.910;2024-01-11T08:14:04;-7.50;99.90
30308;DHT22;17114;52.314;8.910;2024-01-11T08:16:33;-7.50;99.90
30308;DHT22;17114;52.314;8.910;2024-01-11T08:19:00;-7.40;99.90
30308;DHT22;17114;52.314;8.910;2024-01-11T08:21:30;-7.30;99.90
30308;DHT22;17114;52.314;8.910;2024-01-11T08:23:57;-7.30;99.90
30308;DHT22;17114;52.314;8.910;2024-01-11T08:26:29;-7.10;99.90
30308;DHT22;17114;52.314;8.910;2024-01-11T08:28:57;-7.10;99.90
30308;DHT22;17114;52.314;8.910;2024-01-11T08:31:24;-7.00;99.90
30308;DHT22;17114;52.314;8.910;2024-01-11T08:33:52;-7.00;99.90
30308;DHT22;17114;52.314;8.910;2024-01-11T08:36:20;-6.90;99.90
30308;DHT22;17114;52.314;8.910;2024-01-11T08:38:47;-6.80;99.90
30308;DHT22;17114;52.314;8.910;2024-01-11T08:41:15;-6.80;99.90
30308;DHT22;17114;52.314;8.910;2024-01-11T08:43:42;-6.70;99.90
30308;DHT22;17114;52.314;8.910;2024-01-11T08:46:09;-6.60;99.90
30308;DHT22;17114;52.314;8.910;2024-01-11T08:48:36;-6.60;99.90
30308;DHT22;17114;52.314;8.910;2024-01-11T08:51:03;-6.50;99.90
30308;DHT22;17114;52.314;8.910;2024-01-11T08:53:31;-6.50;99.90
30308;DHT22;17114;52.314;8.910;2024-01-11T08:55:58;-6.50;99.90
30308;DHT22;17114;52.314;8.910;2024-01-11T08:58:25;-6.40;99.90
30308;DHT22;17114;52.314;8.910;2024-01-11T09:00:53;-6.40;99.90
30308;DHT22;17114;52.314;8.910;2024-01-11T09:03:20;-6.20;99.90
30308;DHT22;17114;52.314;8.910;2024-01-11T09:05:47;-6.00;99.90
30308;DHT22;17114;52.314;8.910;2024-01-11T09:08:14;-5.80;99.90
30308;DHT22;17114;52.314;8.910;2024-01-11T09:10:41;-5.50;99.90
30308;DHT22;17114;52.314;8.910;2024-01-11T09:13:08;-5.20;99.90
30308;DHT22;17114;52.314;8.910;2024-01-11T09:15:38;-4.90;99.90
30308;DHT22;17114;52.314;8.910;2024-01-11T09:18:06;-4.60;99.90
30308;DHT22;17114;52.314;8.910;2024-01-11T09:20:34;-4.40;99.90
30308;DHT22;17114;52.314;8.910;2024-01-11T09:23:02;-4.20;99.90
30308;DHT22;17114;52.314;8.910;2024-01-11T09:25:31;-4.10;99.90
30308;DHT22;17114;52.314;8.910;2024-01-11T09:27:58;-4.00;99.90
30308;DHT22;17114;52.314;8.910;2024-01-11T09:30:25;-4.10;99.90
30308;DHT22;17114;52.314;8.910;2024-01-11T09:32:52;-4.20;99.90
30308;DHT22;17114;52.314;8.910;2024-01-11T09:35:20;-4.30;99.90
30308;DHT22;17114;52.314;8.910;2024-01-11T09:37:47;-4.30;99.90
30308;DHT22;17114;52.314;8.910;2024-01-11T09:40:14;-4.30;99.90
30308;DHT22;17114;52.314;8.910;2024-01-11T09:42:41;-4.40;99.90
30308;DHT22;17114;52.314;8.910;2024-01-11T09:45:16;-4.40;99.90
30308;DHT22;17114;52.314;8.910;2024-01-11T09:47:44;-4.50;99.90
30308;DHT22;17114;52.314;8.910;2024-01-11T09:50:16;-4.50;99.90
30308;DHT22;17114;52.314;8.910;2024-01-11T09:52:47;-4.50;99.90
30308;DHT22;17114;52.314;8.910;2024-01-11T09:55:16;-4.50;99.90
30308;DHT22;17114;52.314;8.910;2024-01-11T09:57:48;-4.40;99.90
30308;DHT22;17114;52.314;8.910;2024-01-11T10:00:22;-4.40;99.90
30308;DHT22;17114;52.314;8.910;2024-01-11T10:02:50;-4.30;99.90
30308;DHT22;17114;52.314;8.910;2024-01-11T10:05:19;-4.30;99.90
30308;DHT22;17114;52.314;8.910;2024-01-11T10:07:46;-4.20;99.90
30308;DHT22;17114;52.314;8.910;2024-01-11T10:10:13;-4.20;99.90
30308;DHT22;17114;52.314;8.910;2024-01-11T10:12:43;-4.20;99.90
30308;DHT22;17114;52.314;8.910;2024-01-11T10:15:10;-4.20;99.90
30308;DHT22;17114;52.314;8.910;2024-01-11T10:17:44;-4.20;99.90
30308;DHT22;17114;52.314;8.910;2024-01-11T10:20:13;-4.20;99.90
30308;DHT22;17114;52.314;8.910;2024-01-11T10:22:41;-4.20;99.90
30308;DHT22;17114;52.314;8.910;2024-01-11T10:25:16;-4.20;99.90
30308;DHT22;17114;52.314;8.910;2024-01-11T10:27:45;-4.10;99.90
30308;DHT22;17114;52.314;8.910;2024-01-11T10:30:14;-4.00;99.90
30308;DHT22;17114;52.314;8.910;2024-01-11T10:32:45;-4.00;99.90
30308;DHT22;17114;52.314;8.910;2024-01-11T10:35:13;-3.90;99.90
30308;DHT22;17114;52.314;8.910;2024-01-11T10:37:43;-3.80;99.90
30308;DHT22;17114;52.314;8.910;2024-01-11T10:40:11;-3.70;99.90
30308;DHT22;17114;52.314;8.910;2024-01-11T10:42:45;-3.60;99.90
30308;DHT22;17114;52.314;8.910;2024-01-11T10:45:16;-3.60;99.90
30308;DHT22;17114;52.314;8.910;2024-01-11T10:47:54;-3.50;99.90
30308;DHT22;17114;52.314;8.910;2024-01-11T10:50:23;-3.40;99.90
30308;DHT22;17114;52.314;8.910;2024-01-11T10:55:57;-3.30;99.90
30308;DHT22;17114;52.314;8.910;2024-01-11T10:58:26;-3.30;99.90
30308;DHT22;17114;52.314;8.910;2024-01-11T11:00:54;-3.20;99.90
30308;DHT22;17114;52.314;8.910;2024-01-11T11:03:23;-3.10;99.90
30308;DHT22;17114;52.314;8.910;2024-01-11T11:05:53;-2.90;99.90
30308;DHT22;17114;52.314;8.910;2024-01-11T11:08:23;-3.00;99.90
30308;DHT22;17114;52.314;8.910;2024-01-11T11:10:55;-2.90;99.90
30308;DHT22;17114;52.314;8.910;2024-01-11T11:13:24;-2.80;99.90
30308;DHT22;17114;52.314;8.910;2024-01-11T11:15:53;-2.80;99.90
30308;DHT22;17114;52.314;8.910;2024-01-11T11:18:20;-2.70;99.90
30308;DHT22;17114;52.314;8.910;2024-01-11T11:20:48;-2.60;99.90
30308;DHT22;17114;52.314;8.910;2024-01-11T11:23:16;-2.60;99.90
30308;DHT22;17114;52.314;8.910;2024-01-11T11:25:48;-2.60;99.90
30308;DHT22;17114;52.314;8.910;2024-01-11T11:28:17;-2.70;99.90
30308;DHT22;17114;52.314;8.910;2024-01-11T11:30:48;-2.50;99.90
30308;DHT22;17114;52.314;8.910;2024-01-11T11:33:25;-2.50;99.90
30308;DHT22;17114;52.314;8.910;2024-01-11T11:35:56;-2.50;99.90
30308;DHT22;17114;52.314;8.910;2024-01-11T11:38:26;-2.50;99.90
30308;DHT22;17114;52.314;8.910;2024-01-11T11:40:56;-2.50;99.90
30308;DHT22;17114;52.314;8.910;2024-01-11T11:43:23;-2.50;99.90
30308;DHT22;17114;52.314;8.910;2024-01-11T11:45:52;-2.50;99.90
30308;DHT22;17114;52.314;8.910;2024-01-11T11:51:11;-2.50;99.90
30308;DHT22;17114;52.314;8.910;2024-01-11T11:53:43;-2.50;99.90
30308;DHT22;17114;52.314;8.910;2024-01-11T11:56:10;-2.40;99.90
30308;DHT22;17114;52.314;8.910;2024-01-11T11:58:39;-2.30;99.90
30308;DHT22;17114;52.314;8.910;2024-01-11T12:01:06;-2.20;99.90
30308;DHT22;17114;52.314;8.910;2024-01-11T12:03:35;-2.10;99.90
30308;DHT22;17114;52.314;8.910;2024-01-11T12:06:07;-2.10;99.90
30308;DHT22;17114;52.314;8.910;2024-01-11T12:08:36;-2.00;99.90
30308;DHT22;17114;52.314;8.910;2024-01-11T12:11:05;-2.00;99.90
30308;DHT22;17114;52.314;8.910;2024-01-11T12:13:33;-1.80;99.90
30308;DHT22;17114;52.314;8.910;2024-01-11T12:16:01;-1.80;99.90
30308;DHT22;17114;52.314;8.910;2024-01-11T12:18:30;-1.80;99.90
30308;DHT22;17114;52.314;8.910;2024-01-11T12:20:57;-1.70;99.90
30308;DHT22;17114;52.314;8.910;2024-01-11T12:23:24;-1.70;99.90
30308;DHT22;17114;52.314;8.910;2024-01-11T12:25:51;-1.50;99.90
30308;DHT22;17114;52.314;8.910;2024-01-11T12:28:18;-1.60;99.90
30308;DHT22;17114;52.314;8.910;2024-01-11T12:30:45;-1.70;99.90
30308;DHT22;17114;52.314;8.910;2024-01-11T12:33:14;-1.60;99.90
30308;DHT22;17114;52.314;8.910;2024-01-11T12:35:42;-1.60;99.90
30308;DHT22;17114;52.314;8.910;2024-01-11T12:38:09;-1.60;99.90
30308;DHT22;17114;52.314;8.910;2024-01-11T12:40:37;-1.50;99.90
30308;DHT22;17114;52.314;8.910;2024-01-11T12:43:05;-1.40;99.90
30308;DHT22;17114;52.314;8.910;2024-01-11T12:45:33;-1.40;99.90
30308;DHT22;17114;52.314;8.910;2024-01-11T12:48:01;-1.40;99.90
30308;DHT22;17114;52.314;8.910;2024-01-11T12:50:31;-1.30;99.90
30308;DHT22;17114;52.314;8.910;2024-01-11T12:53:08;-1.30;99.90
30308;DHT22;17114;52.314;8.910;2024-01-11T12:55:36;-1.20;99.90
30308;DHT22;17114;52.314;8.910;2024-01-11T12:58:21;-1.10;99.90
30308;DHT22;17114;52.314;8.910;2024-01-11T13:00:49;-1.00;99.90
30308;DHT22;17114;52.314;8.910;2024-01-11T13:03:16;-1.00;99.90
30308;DHT22;17114;52.314;8.910;2024-01-11T13:05:44;-1.00;99.90
30308;DHT22;17114;52.314;8.910;2024-01-11T13:08:11;-1.00;99.90
30308;DHT22;17114;52.314;8.910;2024-01-11T13:10:38;-1.00;99.90
30308;DHT22;17114;52.314;8.910;2024-01-11T13:13:05;-1.00;99.90
30308;DHT22;17114;52.314;8.910;2024-01-11T13:15:35;-1.00;99.90
30308;DHT22;17114;52.314;8.910;2024-01-11T13:18:06;-0.90;99.90
30308;DHT22;17114;52.314;8.910;2024-01-11T13:20:33;-0.90;99.90
30308;DHT22;17114;52.314;8.910;2024-01-11T13:23:17;-0.90;99.90
30308;DHT22;17114;52.314;8.910;2024-01-11T13:25:49;-0.90;99.90
30308;DHT22;17114;52.314;8.910;2024-01-11T13:28:17;-0.90;99.90
30308;DHT22;17114;52.314;8.910;2024-01-11T13:30:46;-0.90;99.90
30308;DHT22;17114;52.314;8.910;2024-01-11T13:33:16;-0.80;99.90
30308;DHT22;17114;52.314;8.910;2024-01-11T13:35:45;-0.90;99.90
30308;DHT22;17114;52.314;8.910;2024-01-11T13:38:13;-0.90;99.90
30308;DHT22;17114;52.314;8.910;2024-01-11T13:40:40;-0.90;99.90
30308;DHT22;17114;52.314;8.910;2024-01-11T13:43:09;-0.90;99.90
30308;DHT22;17114;52.314;8.910;2024-01-11T13:45:36;-0.90;99.90
30308;DHT22;17114;52.314;8.910;2024-01-11T13:48:05;-0.80;99.90
30308;DHT22;17114;52.314;8.910;2024-01-11T13:50:33;-0.80;99.90
30308;DHT22;17114;52.314;8.910;2024-01-11T13:53:01;-0.80;99.90
30308;DHT22;17114;52.314;8.910;2024-01-11T13:55:30;-0.80;99.90
30308;DHT22;17114;52.314;8.910;2024-01-11T13:58:06;-0.60;99.90
30308;DHT22;17114;52.314;8.910;2024-01-11T14:00:33;-0.70;99.90
30308;DHT22;17114;52.314;8.910;2024-01-11T14:03:01;-0.60;99.90
30308;DHT22;17114;52.314;8.910;2024-01-11T14:05:28;-0.60;99.90
30308;DHT22;17114;52.314;8.910;2024-01-11T14:07:56;-0.60;99.90
30308;DHT22;17114;52.314;8.910;2024-01-11T14:10:26;-0.60;99.90
30308;DHT22;17114;52.314;8.910;2024-01-11T14:12:54;-0.50;99.90
30308;DHT22;17114;52.314;8.910;2024-01-11T14:15:22;-0.50;99.90
30308;DHT22;17114;52.314;8.910;2024-01-11T14:17:50;-0.50;99.90
30308;DHT22;17114;52.314;8.910;2024-01-11T14:20:17;-0.50;99.90
30308;DHT22;17114;52.314;8.910;2024-01-11T14:22:46;-0.40;99.90
30308;DHT22;17114;52.314;8.910;2024-01-11T14:25:20;-0.40;99.90
30308;DHT22;17114;52.314;8.910;2024-01-11T14:27:48;-0.40;99.90
30308;DHT22;17114;52.314;8.910;2024-01-11T14:30:16;-0.30;99.90
30308;DHT22;17114;52.314;8.910;2024-01-11T14:32:43;-0.30;99.90
30308;DHT22;17114;52.314;8.910;2024-01-11T14:35:12;-0.30;99.90
30308;DHT22;17114;52.314;8.910;2024-01-11T14:37:41;-0.30;99.90
30308;DHT22;17114;52.314;8.910;2024-01-11T14:40:09;-0.30;99.90
30308;DHT22;17114;52.314;8.910;2024-01-11T14:42:39;-0.20;99.90
30308;DHT22;17114;52.314;8.910;2024-01-11T14:45:07;-0.20;99.90
30308;DHT22;17114;52.314;8.910;2024-01-11T14:47:34;-0.20;99.90
30308;DHT22;17114;52.314;8.910;2024-01-11T14:50:03;-0.20;99.90
30308;DHT22;17114;52.314;8.910;2024-01-11T14:52:31;-0.20;99.90
30308;DHT22;17114;52.314;8.910;2024-01-11T14:54:59;-0.20;99.90
30308;DHT22;17114;52.314;8.910;2024-01-11T14:57:26;-0.20;99.90
30308;DHT22;17114;52.314;8.910;2024-01-11T14:59:53;-0.20;99.90
30308;DHT22;17114;52.314;8.910;2024-01-11T15:02:21;-0.10;99.90
30308;DHT22;17114;52.314;8.910;2024-01-11T15:04:49;-0.10;99.90
30308;DHT22;17114;52.314;8.910;2024-01-11T15:07:16;-0.10;99.90
30308;DHT22;17114;52.314;8.910;2024-01-11T15:09:43;-0.10;99.90
30308;DHT22;17114;52.314;8.910;2024-01-11T15:12:11;0.00;99.90
30308;DHT22;17114;52.314;8.910;2024-01-11T15:14:39;0.00;99.90
30308;DHT22;17114;52.314;8.910;2024-01-11T15:17:06;0.00;99.90
30308;DHT22;17114;52.314;8.910;2024-01-11T15:19:33;0.00;99.90
30308;DHT22;17114;52.314;8.910;2024-01-11T15:22:00;0.20;99.90
30308;DHT22;17114;52.314;8.910;2024-01-11T15:24:27;0.20;99.90
30308;DHT22;17114;52.314;8.910;2024-01-11T15:26:55;0.00;99.90
30308;DHT22;17114;52.314;8.910;2024-01-11T15:29:22;0.10;99.90
30308;DHT22;17114;52.314;8.910;2024-01-11T15:31:50;0.10;99.90
30308;DHT22;17114;52.314;8.910;2024-01-11T15:34:17;0.00;99.90
30308;DHT22;17114;52.314;8.910;2024-01-11T15:36:46;0.00;99.90
30308;DHT22;17114;52.314;8.910;2024-01-11T15:39:13;0.00;99.90
30308;DHT22;17114;52.314;8.910;2024-01-11T15:41:54;0.00;99.90
30308;DHT22;17114;52.314;8.910;2024-01-11T15:44:23;0.10;99.90